W7ZBT Weather Reports


Display with metric or nautical units.
time (UTC)temp
F
wind
direction
speed
MPH
gust
MPH
rain 1hr
in
rain 24hr
in
rain mn
in
humidity
%
barometer
mb
20191020184552 70 309 2.0 0.0 0.00 0.00 0.00 13 1011.9
20191020183104 69 313 3.0 0.0 0.00 0.00 0.00 13 1011.9
20191020181604 69 310 2.0 0.0 0.00 0.00 0.00 12 1012.1
20191020180056 68 312 3.0 0.0 0.00 0.00 0.00 14 1012.4
20191020174550 67 308 2.0 0.0 0.00 0.00 0.00 15 1012.6
20191020173042 66 307 1.0 0.0 0.00 0.00 0.00 16 1012.6
20191020171517 66 310 3.0 0.0 0.00 0.00 0.00 16 1012.8
20191020170017 65 309 2.0 0.0 0.00 0.00 0.00 18 1012.8
20191020164506 65 312 2.0 0.0 0.00 0.00 0.00 19 1013.0
20191020163248 64 313 3.0 0.0 0.00 0.00 0.00 19 1013.0
20191020161715 64 266 1.0 0.0 0.00 0.00 0.00 19 1013.0
20191020160241 63 309 1.0 0.0 0.00 0.00 0.00 20 1012.9
20191020154704 60 308 0.0 0.0 0.00 0.00 0.00 22 1012.8
20191020153148 57 308 1.0 0.0 0.00 0.00 0.00 25 1012.8
20191020151622 55 304 0.0 0.0 0.00 0.00 0.00 27 1012.6
20191020150044 51 304 0.0 0.0 0.00 0.00 0.00 28 1012.2
20191020144644 46 304 0.0 0.0 0.00 0.00 0.00 35 1012.0
20191020143055 44 304 0.0 0.0 0.00 0.00 0.00 37 1011.9
20191020141611 43 304 0.0 0.0 0.00 0.00 0.00 37 1011.7
20191020140027 41 210 0.0 0.0 0.00 0.00 0.00 39 1011.4
20191020134540 40 210 0.0 0.0 0.00 0.00 0.00 41 1011.3
20191020133029 39 210 0.0 0.0 0.00 0.00 0.00 42 1011.3
20191020131601 39 210 0.0 0.0 0.00 0.00 0.00 40 1011.1
20191020130040 39 210 0.0 0.0 0.00 0.00 0.00 41 1011.0
20191020124521 38 210 0.0 0.0 0.00 0.00 0.00 42 1010.8
20191020123022 39 210 0.0 0.0 0.00 0.00 0.00 41 1010.6
20191020121512 39 210 0.0 0.0 0.00 0.00 0.00 41 1010.6
20191020120013 40 210 0.0 0.0 0.00 0.00 0.00 38 1010.6
20191020114510 42 210 0.0 0.0 0.00 0.00 0.00 37 1010.6
20191020113006 43 210 0.0 0.0 0.00 0.00 0.00 35 1010.6
20191020111517 44 210 0.0 0.0 0.00 0.00 0.00 35 1010.3
20191020110242 42 210 1.0 0.0 0.00 0.00 0.00 35 1010.2
20191020104631 41 210 0.0 0.0 0.00 0.00 0.00 36 1010.2
20191020103450 42 210 0.0 0.0 0.00 0.00 0.00 37 1009.9
20191020101638 40 210 0.0 0.0 0.00 0.00 0.00 39 1010.1
20191020100212 41 210 0.0 0.0 0.00 0.00 0.00 40 1010.1
20191020094830 42 210 1.0 0.0 0.00 0.00 0.00 37 1010.2
20191020093217 41 210 1.0 0.0 0.00 0.00 0.00 40 1010.7
20191020091645 40 210 0.0 0.0 0.00 0.00 0.00 41 1010.7
20191020090135 40 210 0.0 0.0 0.00 0.00 0.00 41 1010.2
20191020084631 41 210 0.0 0.0 0.00 0.00 0.00 41 1010.2
20191020083156 41 210 0.0 0.0 0.00 0.00 0.00 41 1010.3
20191020081627 42 210 0.0 0.0 0.00 0.00 0.00 39 1010.5
20191020080259 42 210 0.0 0.0 0.00 0.00 0.00 39 1010.7
20191020074645 42 210 0.0 0.0 0.00 0.00 0.00 39 1010.7
20191020073103 41 210 1.0 0.0 0.00 0.00 0.00 39 1011.1
20191020071554 42 210 0.0 0.0 0.00 0.00 0.00 38 1011.3
20191020070146 41 210 0.0 0.0 0.00 0.00 0.00 39 1011.4
20191020064620 41 210 0.0 0.0 0.00 0.00 0.00 39 1011.0
20191020063107 41 210 0.0 0.0 0.00 0.00 0.00 39 1011.3
20191020061621 41 210 0.0 0.0 0.00 0.00 0.00 38 1011.2
20191020060159 42 210 1.0 0.0 0.00 0.00 0.00 37 1011.3
20191020054645 42 210 0.0 0.0 0.00 0.00 0.00 37 1011.4
20191020053045 43 210 0.0 0.0 0.00 0.00 0.00 38 1011.5
20191020051607 43 210 0.0 0.0 0.00 0.00 0.00 39 1011.7
20191020050109 43 210 0.0 0.0 0.00 0.00 0.00 39 1011.4
20191020044635 44 210 0.0 0.0 0.00 0.00 0.00 37 1011.2
20191020043133 46 210 0.0 0.0 0.00 0.00 0.00 36 1011.4
20191020041616 48 210 0.0 0.0 0.00 0.00 0.00 33 1011.3
20191020040127 49 210 0.0 0.0 0.00 0.00 0.00 30 1011.0
20191020034555 49 210 0.0 0.0 0.00 0.00 0.00 30 1010.8
20191020033112 52 210 0.0 0.0 0.00 0.00 0.00 29 1010.8
20191020031556 53 210 0.0 0.0 0.00 0.00 0.00 27 1011.0
20191020030055 54 210 0.0 0.0 0.00 0.00 0.00 25 1011.1
20191020024603 55 210 0.0 0.0 0.00 0.00 0.00 26 1010.9
20191020023041 55 210 0.0 0.0 0.00 0.00 0.00 26 1010.8
20191020021555 55 210 0.0 0.0 0.00 0.00 0.00 27 1011.0
20191020020106 56 210 0.0 0.0 0.00 0.00 0.00 26 1010.6
20191020014606 56 210 0.0 0.0 0.00 0.00 0.00 25 1010.7
20191020013100 57 210 0.0 0.0 0.00 0.00 0.00 25 1010.8
20191020011530 58 210 0.0 0.0 0.00 0.00 0.00 24 1010.9
20191020010034 59 210 0.0 0.0 0.00 0.00 0.00 23 1011.0
20191020004623 61 210 0.0 0.0 0.00 0.00 0.00 21 1011.2
20191020003129 62 210 0.0 0.0 0.00 0.00 0.00 20 1011.2
20191020001608 63 210 1.0 0.0 0.00 0.00 0.00 18 1011.0
20191020000122 65 210 1.0 0.0 0.00 0.00 0.00 17 1010.6
20191019234555 65 209 3.0 0.0 0.00 0.00 0.00 17 1010.6
20191019233029 66 197 2.0 0.0 0.00 0.00 0.00 16 1010.6
20191019231548 66 237 2.0 0.0 0.00 0.00 0.00 17 1011.1
20191019230107 66 238 3.0 0.0 0.00 0.00 0.00 16 1011.3
20191019224551 67 227 2.0 0.0 0.00 0.00 0.00 16 1011.1
20191019223050 68 211 3.0 0.0 0.00 0.00 0.00 17 1010.8
20191019221544 69 243 3.0 0.0 0.00 0.00 0.00 16 1010.7
20191019220031 69 226 2.0 0.0 0.00 0.00 0.00 16 1011.0
20191019214539 70 274 2.0 0.0 0.00 0.00 0.00 15 1011.2
20191019213045 70 232 2.0 0.0 0.00 0.00 0.00 15 1011.6
20191019211547 70 240 3.0 0.0 0.00 0.00 0.00 15 1011.4
20191019210021 70 241 2.0 0.0 0.00 0.00 0.00 17 1011.8
20191019204549 69 305 2.0 0.0 0.00 0.00 0.00 17 1011.9
20191019203034 68 238 2.0 0.0 0.00 0.00 0.00 18 1012.1
20191019201514 68 175 4.0 0.0 0.00 0.00 0.00 18 1012.4
20191019200023 69 257 2.0 0.0 0.00 0.00 0.00 18 1012.6
20191019194536 67 241 3.0 0.0 0.00 0.00 0.00 20 1012.9
20191019193013 68 241 3.0 0.0 0.00 0.00 0.00 20 1013.0
20191019191509 68 232 1.0 0.0 0.00 0.00 0.00 25 1013.1
20191019190004 67 194 2.0 0.0 0.00 0.00 0.00 24 1013.3